Latest Weather Observations for Jabiru

IDD60801

Issued at 8:02 am CST Friday 27 March 2015 (issued every 30 minutes, with the page automatically refreshed every 10 minutes)

About weather observations | Map of weather stations | Latest weather observations for NT | Other Formats
Station Details ID: 014198 Name: JABIRU AIRPORT Lat: -12.66 Lon: 132.89 Height: 26.5 m
Data from the previous 72 hours. | See also: Recent months at Jabiru
Date/Time
CST
Temp
°C
App
Temp
°C
Dew
Point
Rel
Hum
%
Delta-T
°C
Wind Press
QNH
hPa
Press
MSL
hPa
Rain
since 9 am
mm
Dir
 
Spd
km/h
Gust
km/h
Spd
kts
Gust
kts
27/08:00am 25.8 30.1 22.7 83 2.1 SE 4 7 2 4 1015.4 1015.2 6.8
27/07:30am 25.2 29.2 22.7 86 1.7 ENE 6 9 3 5 1014.7 1014.5 6.8
27/07:00am 25.0 28.5 22.9 88 1.4 ENE 9 11 5 6 1014.1 1013.9 6.8
27/06:30am 24.8 29.8 22.5 87 1.5 CALM 0 0 0 0 1014.0 1013.8 6.8
27/06:00am 24.9 29.1 22.4 86 1.7 ESE 4 7 2 4 1013.8 1013.6 6.8
27/05:30am 25.0 28.7 22.5 86 1.7 E 7 11 4 6 1013.5 1013.3 6.8
27/05:00am 25.1 28.4 22.6 86 1.7 E 9 13 5 7 1013.2 1013.0 6.8
27/04:30am 25.4 29.1 22.5 84 2.0 E 7 11 4 6 1013.1 1012.9 6.8
27/04:00am 25.6 29.5 22.9 85 1.8 E 7 11 4 6 1013.2 1013.0 6.8
27/03:30am 25.7 29.5 22.8 84 2.0 ESE 7 9 4 5 1013.3 1013.1 6.8
27/03:00am 26.0 30.0 23.1 84 2.0 E 7 13 4 7 1013.5 1013.3 6.8
27/02:30am 26.1 29.8 23.2 84 2.0 E 9 13 5 7 1013.8 1013.6 6.8
27/02:00am 26.4 29.4 23.3 83 2.1 ENE 13 19 7 10 1014.3 1014.1 6.8
27/01:30am 26.5 30.7 23.4 83 2.1 NE 7 9 4 5 1014.6 1014.4 6.8
27/01:00am 26.7 30.4 23.2 81 2.4 E 9 13 5 7 1014.4 1014.2 6.8
27/12:30am 26.9 30.2 23.2 80 2.5 ENE 11 17 6 9 1015.0 1014.8 6.8
27/12:00am 27.1 29.5 22.9 78 2.9 ENE 15 20 8 11 1015.5 1015.3 6.8
 
Date/Time
CST
Temp
°C
App
Temp
°C
Dew
Point
Rel
Hum
%
Delta-T
°C
Wind Press
QNH
hPa
Press
MSL
hPa
Rain
since 9 am
mm
Dir
 
Spd
km/h
Gust
km/h
Spd
kts
Gust
kts
26/11:30pm 27.2 29.2 23.0 78 2.9 ENE 17 26 9 14 1015.7 1015.5 6.8
26/11:00pm 27.2 30.6 23.4 80 2.6 ENE 11 15 6 8 1015.5 1015.3 6.8
26/10:30pm 27.1 30.1 23.3 80 2.6 E 13 17 7 9 1015.5 1015.3 6.8
26/10:00pm 27.3 30.5 23.7 81 2.5 ENE 13 17 7 9 1015.7 1015.5 6.8
26/09:30pm 27.1 31.7 24.2 84 2.0 ENE 7 9 4 5 1015.5 1015.3 6.8
26/09:00pm 27.0 31.8 24.1 84 2.0 ENE 6 7 3 4 1015.0 1014.8 6.8
26/08:30pm 26.8 31.5 24.3 86 1.7 NNE 7 9 4 5 1014.4 1014.2 6.8
26/08:00pm 26.8 31.8 24.5 87 1.6 NE 6 7 3 4 1014.0 1013.8 6.8
26/07:30pm 27.0 32.6 24.3 85 1.9 NNE 2 7 1 4 1013.5 1013.3 6.8
26/07:00pm 27.2 32.0 24.1 83 2.1 NNW 6 9 3 5 1013.4 1013.2 6.8
26/06:30pm 27.6 31.9 24.2 82 2.4 N 9 15 5 8 1012.8 1012.6 6.8
26/06:00pm 27.9 31.5 24.3 81 2.5 N 13 20 7 11 1012.1 1011.9 6.8
26/05:30pm 28.0 31.4 24.0 79 2.8 N 13 20 7 11 1011.8 1011.6 6.8
26/05:00pm 28.0 31.1 23.6 77 3.0 N 13 17 7 9 1011.3 1011.1 6.8
26/04:30pm 28.1 31.6 24.9 83 2.2 N 15 20 8 11 1010.9 1010.7 6.8
26/04:00pm 27.0 31.6 25.4 91 1.1 N 11 15 6 8 1011.0 1010.8 6.8
26/03:30pm 30.1 31.9 23.5 67 4.6 N 20 30 11 16 1011.1 1010.9 0.2
26/03:00pm 31.6 33.2 23.2 61 5.8 NE 20 30 11 16 1011.1 1010.9 0.2
26/02:30pm 31.5 33.0 23.1 61 5.8 NNE 20 35 11 19 1011.3 1011.1 0.2
26/02:00pm 29.4 31.6 24.3 74 3.5 NNE 20 30 11 16 1011.6 1011.4 0.2
26/01:30pm 32.1 33.5 22.8 58 6.4 NE 20 28 11 15 1011.7 1011.5 0.2
26/01:00pm 31.9 34.3 23.7 62 5.7 NE 17 24 9 13 1012.3 1012.1 0.2
26/12:30pm 31.3 32.7 22.6 60 6.0 NE 19 24 10 13 1012.7 1012.5 0.2
26/12:00pm 31.8 34.5 24.7 66 5.0 NE 19 28 10 15 1013.2 1013.0 0.2
26/11:30am 31.3 33.7 23.7 64 5.3 NNE 17 26 9 14 1013.8 1013.6 0.2
26/11:00am 31.3 33.8 24.4 66 4.8 NE 19 28 10 15 1014.0 1013.8 0.2
26/10:30am 30.1 33.4 23.8 69 4.4 NE 13 22 7 12 1014.6 1014.4 0.2
26/10:00am 29.8 31.7 23.5 69 4.3 ENE 19 26 10 14 1014.8 1014.6 0.0
26/09:30am 29.4 31.2 23.6 71 4.0 ENE 20 30 11 16 1014.5 1014.3 0.0
26/09:00am 28.8 31.4 23.9 75 3.4 ENE 17 22 9 12 1014.2 1014.0 5.2
26/08:30am 27.9 30.6 24.1 80 2.6 E 17 26 9 14 1013.8 1013.6 5.2
26/08:00am 26.9 30.2 23.8 83 2.1 E 13 19 7 10 1013.5 1013.3 5.2
26/07:30am 26.1 30.2 24.0 88 1.4 E 9 13 5 7 1013.1 1012.9 5.2
26/07:00am 25.4 31.0 23.6 90 1.2 CALM 0 6 0 3 1013.0 1012.8 5.2
26/06:30am 25.4 29.8 23.8 91 1.1 E 7 11 4 6 1012.6 1012.4 5.2
26/06:00am 25.2 29.6 23.8 92 1.0 ESE 7 11 4 6 1012.3 1012.1 5.2
26/05:30am 25.1 29.6 23.9 93 0.8 ESE 7 9 4 5 1012.0 1011.8 5.2
26/05:00am 25.3 30.2 24.3 94 0.7 ESE 6 7 3 4 1012.0 1011.8 5.2
26/04:30am 25.2 29.8 24.2 94 0.7 E 7 9 4 5 1011.8 1011.6 5.2
26/04:00am 25.3 29.6 24.3 94 0.7 ESE 9 11 5 6 1011.1 1010.9 5.2
26/03:30am 25.1 29.7 24.1 94 0.7 ESE 7 11 4 6 1011.2 1011.0 5.2
26/03:00am 25.2 29.8 24.2 94 0.7 ESE 7 9 4 5 1011.6 1011.4 5.2
26/02:30am 25.3 30.0 24.3 94 0.7 E 7 11 4 6 1011.5 1011.3 5.2
26/02:00am 25.4 30.0 24.2 93 0.8 ESE 7 11 4 6 1011.8 1011.6 5.2
26/01:30am 25.5 30.2 24.3 93 0.8 ESE 7 11 4 6 1011.8 1011.6 5.2
26/01:00am 25.5 29.8 24.3 93 0.8 E 9 11 5 6 1012.0 1011.8 5.2
26/12:30am 25.3 29.9 24.1 93 0.8 ESE 7 9 4 5 1012.3 1012.1 5.2
26/12:00am 25.5 30.1 24.1 92 1.0 E 7 9 4 5 1012.4 1012.2 5.2
 
Date/Time
CST
Temp
°C
App
Temp
°C
Dew
Point
Rel
Hum
%
Delta-T
°C
Wind Press
QNH
hPa
Press
MSL
hPa
Rain
since 9 am
mm
Dir
 
Spd
km/h
Gust
km/h
Spd
kts
Gust
kts
25/11:30pm 25.6 30.1 24.0 91 1.1 E 7 9 4 5 1012.4 1012.2 5.2
25/11:00pm 25.9 30.6 24.3 91 1.1 ENE 7 9 4 5 1012.6 1012.4 5.2
25/10:30pm 26.3 30.9 24.2 88 1.4 NE 7 11 4 6 1012.5 1012.3 5.2
25/10:00pm 26.1 30.8 24.3 90 1.2 ENE 7 9 4 5 1012.3 1012.1 5.2
25/09:30pm 26.3 31.2 24.7 91 1.1 ENE 7 9 4 5 1012.0 1011.8 5.2
25/09:00pm 26.1 31.2 24.9 93 0.8 ENE 7 7 4 4 1011.5 1011.3 5.2
25/08:30pm 26.2 32.5 24.8 92 1.0 CALM 0 0 0 0 1011.3 1011.1 5.2
25/08:00pm 26.1 31.9 24.5 91 1.1 NNW 2 7 1 4 1011.3 1011.1 5.2
25/07:30pm 26.3 29.9 24.3 89 1.4 WNW 13 17 7 9 1011.1 1010.9 4.2
25/07:00pm 27.7 32.4 24.3 82 2.4 N 7 9 4 5 1010.3 1010.1 1.8
25/06:30pm 28.3 33.1 24.5 80 2.6 NNE 7 9 4 5 1009.8 1009.6 1.8
25/06:00pm 28.6 32.2 23.7 75 3.4 NNE 11 17 6 9 1009.3 1009.1 1.8
25/05:30pm 27.9 30.2 23.5 77 3.0 NNE 17 22 9 12 1008.9 1008.7 1.8
25/05:00pm 31.1 33.4 23.5 64 5.3 N 17 26 9 14 1008.7 1008.5 1.8
25/04:30pm 30.3 33.0 23.5 67 4.7 NNE 15 20 8 11 1008.4 1008.2 1.8
25/04:00pm 30.7 32.1 22.6 62 5.5 N 19 26 10 14 1008.7 1008.5 1.8
25/03:30pm 31.0 33.4 23.6 64 5.1 N 17 28 9 15 1008.5 1008.3 1.8
25/03:00pm 31.0 32.3 22.3 60 5.9 NNW 19 30 10 16 1008.6 1008.4 1.8
25/02:30pm 31.4 32.4 22.1 57 6.3 NNW 20 32 11 17 1008.5 1008.3 1.8
25/02:00pm 31.1 32.9 23.2 63 5.4 NW 19 28 10 15 1008.8 1008.6 1.8
25/01:30pm 30.8 31.9 22.4 61 5.7 NNW 20 30 11 16 1009.4 1009.2 1.8
25/01:00pm 30.7 31.2 22.6 62 5.5 NNW 24 35 13 19 1010.0 1009.8 1.8
25/12:30pm 30.0 30.8 22.4 63 5.2 NNW 22 35 12 19 1010.2 1010.0 1.8
25/12:00pm 28.9 31.6 24.2 76 3.3 NNW 17 26 9 14 1010.4 1010.2 1.8
25/11:30am 27.6 31.2 25.0 86 1.8 NNW 15 22 8 12 1010.7 1010.5 1.8
25/11:00am 25.7 27.6 23.4 87 1.6 NNW 19 32 10 17 1011.1 1010.9 1.6
25/10:30am 25.7 30.1 24.5 93 0.8 NW 9 13 5 7 1011.1 1010.9 1.0
25/10:00am 25.9 27.4 23.0 84 2.0 NNE 20 32 11 17 1011.2 1011.0 0.0
25/09:30am 26.0 27.8 23.3 85 1.8 NNE 19 26 10 14 1011.0 1010.8 0.0
25/09:00am 25.2 28.2 24.0 93 0.8 NNE 15 20 8 11 1010.9 1010.7 9.0
25/08:30am 24.7 27.5 23.7 94 0.7 NE 15 20 8 11 1010.6 1010.4 8.8
25/08:00am 24.4 27.5 23.5 95 0.6 NE 13 19 7 10 1010.1 1009.9 8.8
25/07:30am 24.7 28.4 23.3 92 1.0 NNE 9 15 5 8 1009.6 1009.4 8.4
25/07:00am 24.6 28.3 23.2 92 0.9 NNE 9 13 5 7 1009.2 1009.0 8.4
25/06:30am 24.5 27.9 23.3 93 0.8 NNE 11 19 6 10 1008.7 1008.5 8.4
25/06:00am 24.2 27.6 23.3 95 0.6 NE 11 15 6 8 1008.2 1008.0 8.4
25/05:30am 24.3 27.7 23.4 95 0.6 NNE 11 17 6 9 1007.8 1007.6 8.4
25/05:00am 24.3 27.4 23.6 96 0.5 NE 13 17 7 9 1007.8 1007.6 8.2
25/04:30am 24.3 28.1 23.4 95 0.6 NE 9 15 5 8 1007.6 1007.4 7.6
25/04:00am 24.5 28.4 23.6 95 0.6 NE 9 11 5 6 1007.4 1007.2 6.8
25/03:30am 24.4 27.5 23.5 95 0.6 NE 13 17 7 9 1007.6 1007.4 6.8
25/03:00am 24.5 27.5 23.3 93 0.8 NE 13 17 7 9 1007.7 1007.5 6.8
25/02:30am 24.5 28.0 23.5 94 0.7 NE 11 17 6 9 1007.7 1007.5 6.8
25/02:00am 24.3 27.3 23.4 95 0.6 NE 13 17 7 9 1007.8 1007.6 6.8
25/01:30am 24.3 27.7 23.3 94 0.7 NE 11 15 6 8 1008.1 1007.9 6.8
25/01:00am 24.4 27.2 23.0 92 0.9 NE 13 20 7 11 1008.4 1008.2 6.8
25/12:30am 24.8 26.8 22.9 89 1.3 NE 17 22 9 12 1008.5 1008.3 6.8
25/12:00am 24.7 27.4 22.9 90 1.2 NE 13 17 7 9 1008.4 1008.2 6.8
 
Date/Time
CST
Temp
°C
App
Temp
°C
Dew
Point
Rel
Hum
%
Delta-T
°C
Wind Press
QNH
hPa
Press
MSL
hPa
Rain
since 9 am
mm
Dir
 
Spd
km/h
Gust
km/h
Spd
kts
Gust
kts
24/11:30pm 24.9 27.2 22.8 88 1.4 NE 15 20 8 11 1008.7 1008.5 6.8
24/11:00pm 25.3 28.1 23.0 87 1.6 ENE 13 20 7 11 1008.8 1008.6 6.8
24/10:30pm 25.1 27.9 23.0 88 1.4 NE 13 20 7 11 1008.9 1008.7 6.8
24/10:00pm 24.9 28.7 23.5 92 1.0 ENE 9 13 5 7 1008.8 1008.6 6.8
24/09:30pm 24.6 28.0 23.4 93 0.8 NE 11 17 6 9 1008.6 1008.4 6.8
24/09:00pm 25.1 28.1 23.3 90 1.2 NE 13 20 7 11 1008.4 1008.2 6.8
24/08:30pm 25.0 28.8 23.4 91 1.1 NE 9 11 5 6 1007.9 1007.7 6.8
24/08:00pm 25.0 28.3 23.2 90 1.2 NNE 11 15 6 8 1007.5 1007.3 6.8
24/07:30pm 25.1 28.9 23.5 91 1.1 NE 9 15 5 8 1006.9 1006.7 6.8
24/07:00pm 25.2 28.8 23.8 92 1.0 NE 11 17 6 9 1006.5 1006.3 6.8
24/06:30pm 25.2 29.3 24.0 93 0.8 ENE 9 13 5 7 1005.9 1005.7 6.4
24/06:00pm 25.4 29.8 24.4 94 0.7 E 9 11 5 6 1005.6 1005.4 5.2
24/05:30pm 25.0 29.5 24.0 94 0.7 E 7 13 4 7 1005.3 1005.1 5.2
24/05:00pm 25.4 30.2 24.2 93 0.8 ESE 6 11 3 6 1005.1 1004.9 3.6
24/04:30pm 25.9 28.8 23.9 89 1.4 ENE 15 20 8 11 1005.0 1004.8 2.0
24/04:00pm 26.5 29.8 23.2 82 2.2 NE 11 19 6 10 1004.8 1004.6 1.6
24/03:30pm 26.5 29.6 23.6 84 2.0 NE 13 19 7 10 1004.8 1004.6 1.6
24/03:00pm 26.0 29.4 24.0 89 1.4 NE 13 20 7 11 1004.9 1004.7 1.6
24/02:30pm 26.0 29.0 24.0 89 1.4 ENE 15 20 8 11 1005.0 1004.8 1.4
24/02:00pm 25.7 28.1 23.6 88 1.4 NE 17 22 9 12 1005.4 1005.2 1.0
24/01:30pm 25.4 26.8 23.5 89 1.3 ENE 22 28 12 15 1005.6 1005.4 1.0
24/01:00pm 25.5 26.8 23.4 88 1.4 ENE 22 32 12 17 1005.7 1005.5 1.0
24/12:30pm 24.7 26.6 23.5 93 0.8 ENE 19 26 10 14 1005.7 1005.5 1.0
24/12:00pm 24.9 26.3 22.8 88 1.4 E 20 28 11 15 1005.8 1005.6 0.8
24/11:30am 24.4 25.6 22.5 89 1.3 ESE 20 32 11 17 1005.5 1005.3 0.8
24/11:00am 24.3 24.7 21.8 86 1.7 SE 22 39 12 21 1005.9 1005.7 0.6
24/10:30am 24.1 25.9 21.8 87 1.5 SSE 15 30 8 16 1006.1 1005.9 0.6
24/10:00am 24.9 25.6 21.6 82 2.2 SE 20 32 11 17 1006.8 1006.6 0.0
24/09:30am 25.7 27.6 21.4 77 2.9 SSE 13 28 7 15 1006.8 1006.6 0.0
24/09:00am 25.3 26.4 21.2 78 2.7 S 17 32 9 17 1006.7 1006.5 19.2
24/08:30am 24.6 26.1 21.3 82 2.2 S 15 24 8 13 1006.3 1006.1 19.2

Other Formats:

Comma delimited format used in spreadsheet applications
http://www.bom.gov.au/fwo/IDD60801/IDD60801.94137.axf

JavaScript Object Notation format (JSON) in row-major order
http://www.bom.gov.au/fwo/IDD60801/IDD60801.94137.json